createdAt,value
2023-03-16T00:03:53.458Z,75.16
2023-03-16T00:08:59.014Z,75.07
2023-03-16T00:14:04.115Z,75.06
2023-03-16T00:19:06.338Z,75.20
2023-03-16T00:24:08.350Z,75.16
2023-03-16T00:29:10.040Z,75.34
2023-03-16T00:34:12.321Z,75.21
2023-03-16T00:39:14.822Z,75.39
2023-03-16T00:44:16.606Z,75.08
2023-03-16T00:49:18.496Z,75.07
2023-03-16T00:54:22.128Z,75.04
2023-03-16T00:59:26.140Z,74.94
2023-03-16T01:04:29.183Z,75.31
2023-03-16T01:09:36.668Z,75.16
2023-03-16T01:14:39.145Z,74.96
2023-03-16T01:19:41.669Z,74.60
2023-03-16T01:24:47.643Z,74.65
2023-03-16T01:29:49.786Z,74.32
2023-03-16T01:34:51.656Z,74.93
2023-03-16T01:39:54.409Z,75.02
2023-03-16T01:45:01.601Z,75.04
2023-03-16T01:50:08.330Z,74.81
2023-03-16T01:55:14.901Z,74.64
2023-03-16T02:00:19.972Z,74.61
2023-03-16T02:05:54.928Z,74.60
2023-03-16T02:10:59.823Z,74.62
2023-03-16T02:16:19.340Z,74.72
2023-03-16T02:21:35.328Z,74.82
2023-03-16T02:26:59.100Z,75.09
2023-03-16T02:32:06.347Z,75.43
2023-03-16T02:37:08.958Z,74.75
2023-03-16T02:42:16.607Z,75.08
2023-03-16T02:47:36.141Z,74.92
2023-03-16T02:52:38.659Z,74.51
2023-03-16T02:57:40.942Z,74.45
2023-03-16T03:02:47.627Z,74.76
2023-03-16T03:07:49.460Z,74.83
2023-03-16T03:12:52.009Z,74.80
2023-03-16T03:17:53.832Z,74.67
2023-03-16T03:22:56.217Z,74.79
2023-03-16T03:27:58.570Z,74.96
2023-03-16T03:33:01.546Z,74.72
2023-03-16T03:38:04.559Z,74.75
2023-03-16T03:43:06.451Z,74.64
2023-03-16T03:48:12.872Z,74.74
2023-03-16T03:53:14.934Z,74.78
2023-03-16T03:58:36.832Z,74.75
2023-03-16T04:03:38.680Z,74.62
2023-03-16T04:08:42.021Z,74.75
2023-03-16T04:13:46.892Z,75.03
2023-03-16T04:18:48.695Z,74.76
2023-03-16T04:23:54.427Z,74.39
2023-03-16T04:29:00.369Z,74.05
2023-03-16T04:34:02.401Z,74.23
2023-03-16T04:39:05.532Z,74.55
2023-03-16T04:44:07.724Z,74.48
2023-03-16T04:49:10.432Z,74.65
2023-03-16T04:54:13.590Z,74.69
2023-03-16T04:59:18.032Z,74.77
2023-03-16T05:04:25.494Z,74.46
2023-03-16T05:09:27.315Z,74.45
2023-03-16T05:14:29.112Z,74.78
2023-03-16T05:19:49.216Z,74.92
2023-03-16T05:24:52.538Z,74.33
2023-03-16T05:29:54.883Z,74.57
2023-03-16T05:34:58.538Z,74.70
2023-03-16T05:40:00.355Z,74.85
2023-03-16T05:45:01.965Z,74.29
2023-03-16T05:50:12.455Z,74.42
2023-03-16T05:55:18.283Z,74.55
2023-03-16T06:00:26.116Z,74.19
2023-03-16T06:05:41.624Z,74.23
2023-03-16T06:10:43.444Z,74.42
2023-03-16T06:15:45.219Z,74.53
2023-03-16T06:20:48.643Z,75.15
2023-03-16T06:25:51.013Z,75.48
2023-03-16T06:30:57.726Z,77.21
2023-03-16T06:36:04.599Z,75.82
2023-03-16T06:41:14.657Z,74.63
2023-03-16T06:46:16.900Z,73.95
2023-03-16T06:51:18.977Z,73.56
2023-03-16T06:56:27.850Z,73.31
2023-03-16T07:01:31.799Z,72.89
2023-03-16T07:06:34.351Z,72.83
2023-03-16T07:11:36.435Z,72.74
2023-03-16T07:16:38.271Z,72.56
2023-03-16T07:21:41.930Z,72.38
2023-03-16T07:26:48.425Z,72.54
2023-03-16T07:32:00.129Z,72.63
2023-03-16T07:37:09.468Z,73.10
2023-03-16T07:42:12.033Z,73.65
2023-03-16T07:47:26.625Z,74.62
2023-03-16T07:52:32.271Z,75.27
2023-03-16T07:57:34.500Z,75.48
2023-03-16T08:02:36.567Z,76.25
2023-03-16T08:07:38.430Z,76.65
2023-03-16T08:12:49.148Z,76.44
2023-03-16T08:17:52.380Z,76.74
2023-03-16T08:22:59.131Z,77.17
2023-03-16T08:28:05.971Z,77.07
2023-03-16T08:33:08.145Z,77.07
2023-03-16T08:38:12.744Z,76.82
2023-03-16T08:43:19.164Z,77.02
2023-03-16T08:48:22.149Z,76.38
2023-03-16T08:53:25.788Z,76.38
2023-03-16T08:58:27.644Z,75.53
2023-03-16T09:03:30.851Z,75.04
2023-03-16T09:08:33.116Z,74.30
2023-03-16T09:13:36.085Z,73.40
2023-03-16T09:18:37.915Z,72.89
2023-03-16T09:23:42.636Z,72.71
2023-03-16T09:28:44.412Z,72.27
2023-03-16T09:33:47.001Z,71.80
2023-03-16T09:38:48.813Z,71.40
2023-03-16T09:43:53.253Z,71.05
2023-03-16T09:48:57.897Z,70.78
2023-03-16T09:54:03.138Z,70.29
2023-03-16T09:59:13.573Z,70.22
2023-03-16T10:04:34.504Z,69.62
2023-03-16T10:09:42.954Z,68.78
2023-03-16T10:14:57.755Z,67.77
2023-03-16T10:20:04.349Z,66.65
2023-03-16T10:25:19.918Z,66.10
2023-03-16T10:30:28.712Z,64.11
2023-03-16T10:35:45.073Z,63.10
2023-03-16T10:40:46.849Z,63.40
2023-03-16T10:45:48.653Z,62.50
2023-03-16T10:50:57.488Z,62.65
2023-03-16T10:56:11.874Z,62.48
2023-03-16T11:01:26.811Z,62.29
2023-03-16T11:06:30.841Z,62.20
2023-03-16T11:11:33.991Z,61.68
2023-03-16T11:17:02.257Z,61.72
2023-03-16T11:22:13.161Z,62.05
2023-03-16T11:27:36.604Z,60.43
2023-03-16T11:32:41.477Z,58.99
2023-03-16T11:38:20.699Z,57.36
2023-03-16T11:43:43.990Z,57.14
2023-03-16T11:48:46.271Z,57.79
2023-03-16T11:54:04.896Z,57.20
2023-03-16T11:59:27.070Z,56.06
2023-03-16T12:04:38.343Z,56.48
2023-03-16T12:10:13.897Z,55.83
2023-03-16T12:15:41.862Z,55.30
2023-03-16T12:20:50.266Z,55.30
2023-03-16T12:25:53.397Z,55.21
2023-03-16T12:31:09.353Z,55.07
2023-03-16T12:36:46.465Z,53.98
2023-03-16T12:42:13.574Z,53.99
2023-03-16T12:47:28.284Z,55.05
2023-03-16T12:52:39.764Z,53.49
2023-03-16T12:57:43.397Z,53.52
2023-03-16T13:02:59.899Z,53.95
2023-03-16T13:08:06.780Z,52.74
2023-03-16T13:13:18.380Z,52.59
2023-03-16T13:18:23.334Z,52.04
2023-03-16T13:23:57.923Z,51.96
2023-03-16T13:28:59.663Z,51.59
2023-03-16T13:34:02.728Z,51.22
2023-03-16T13:39:22.303Z,49.66
2023-03-16T13:44:25.182Z,50.11
2023-03-16T13:49:27.530Z,49.26
2023-03-16T13:54:30.828Z,49.11
2023-03-16T13:59:33.364Z,48.06
2023-03-16T14:04:35.309Z,48.51
2023-03-16T14:09:38.093Z,48.48
2023-03-16T14:14:41.649Z,47.73
2023-03-16T14:19:58.651Z,48.66
2023-03-16T14:25:01.362Z,47.92
2023-03-16T14:30:24.257Z,47.57
2023-03-16T14:35:41.285Z,48.70
2023-03-16T14:40:53.541Z,47.88
2023-03-16T14:45:55.769Z,48.29
2023-03-16T14:51:01.575Z,48.59
2023-03-16T14:56:03.770Z,48.69
2023-03-16T15:01:06.367Z,47.95
2023-03-16T15:06:08.196Z,47.76
2023-03-16T15:11:10.625Z,48.26
2023-03-16T15:16:14.040Z,47.67
2023-03-16T15:21:20.740Z,47.81
2023-03-16T15:26:27.949Z,47.65
2023-03-16T15:31:29.680Z,47.99
2023-03-16T15:36:31.996Z,47.35
2023-03-16T15:41:46.700Z,47.75
2023-03-16T15:46:49.608Z,48.06
2023-03-16T15:51:51.388Z,48.46
2023-03-16T15:56:55.894Z,48.42
2023-03-16T16:01:58.266Z,48.40
2023-03-16T16:07:02.759Z,49.03
2023-03-16T16:12:04.679Z,49.06
2023-03-16T16:17:19.935Z,49.71
2023-03-16T16:22:23.414Z,50.27
2023-03-16T16:27:25.166Z,50.42
2023-03-16T16:32:27.213Z,50.85
2023-03-16T16:37:29.042Z,51.48
2023-03-16T16:42:30.841Z,51.58
2023-03-16T16:47:32.518Z,52.16
2023-03-16T16:52:34.271Z,52.49
2023-03-16T16:57:37.108Z,52.96
2023-03-16T17:02:47.846Z,53.27
2023-03-16T17:07:50.960Z,53.98
2023-03-16T17:12:54.890Z,54.35
2023-03-16T17:18:05.047Z,55.06
2023-03-16T17:23:25.511Z,55.91
2023-03-16T17:28:31.332Z,56.45
2023-03-16T17:33:33.907Z,57.10
2023-03-16T17:38:35.806Z,57.78
2023-03-16T17:43:37.525Z,58.07
2023-03-16T17:48:39.348Z,59.08
2023-03-16T17:53:41.388Z,59.12
2023-03-16T17:58:45.156Z,59.73
2023-03-16T18:03:48.391Z,60.17
2023-03-16T18:08:50.437Z,60.57
2023-03-16T18:13:52.770Z,60.57
2023-03-16T18:18:59.836Z,61.25
2023-03-16T18:24:02.727Z,61.50
2023-03-16T18:29:05.598Z,61.78
2023-03-16T18:34:09.122Z,62.03
2023-03-16T18:39:18.872Z,62.21
2023-03-16T18:44:23.247Z,62.48
2023-03-16T18:49:36.670Z,62.42
2023-03-16T18:54:39.024Z,62.45
2023-03-16T18:59:40.776Z,62.14
2023-03-16T19:04:42.739Z,62.85
2023-03-16T19:09:44.869Z,63.25
2023-03-16T19:14:47.615Z,63.59
2023-03-16T19:19:49.397Z,64.41
2023-03-16T19:24:54.109Z,64.33
2023-03-16T19:29:55.938Z,64.97
2023-03-16T19:34:57.914Z,65.16
2023-03-16T19:40:00.403Z,65.23
2023-03-16T19:45:03.309Z,64.64
2023-03-16T19:50:13.430Z,64.57
2023-03-16T19:55:24.880Z,64.20
2023-03-16T20:00:27.017Z,64.44
2023-03-16T20:05:30.950Z,64.37
2023-03-16T20:10:33.101Z,64.43
2023-03-16T20:15:35.461Z,64.28
2023-03-16T20:20:37.563Z,64.11
2023-03-16T20:25:39.209Z,63.98
2023-03-16T20:30:41.390Z,64.31
2023-03-16T20:35:43.420Z,64.11
2023-03-16T20:40:47.746Z,63.73
2023-03-16T20:45:51.247Z,63.78
2023-03-16T20:50:54.988Z,63.76
2023-03-16T20:55:56.705Z,63.75
2023-03-16T21:00:58.727Z,63.96
2023-03-16T21:06:00.484Z,63.92
2023-03-16T21:11:02.197Z,63.88
2023-03-16T21:16:04.309Z,64.27
2023-03-16T21:21:06.506Z,64.10
2023-03-16T21:26:15.981Z,64.19
2023-03-16T21:31:19.692Z,64.40
2023-03-16T21:36:24.462Z,64.71
2023-03-16T21:41:26.171Z,65.17
2023-03-16T21:46:28.058Z,64.80
2023-03-16T21:51:31.788Z,65.16
2023-03-16T21:56:33.429Z,65.14
2023-03-16T22:01:44.914Z,65.18
2023-03-16T22:06:52.508Z,65.26
2023-03-16T22:11:54.119Z,65.48
2023-03-16T22:16:56.551Z,65.52
2023-03-16T22:21:58.668Z,65.36
2023-03-16T22:27:00.313Z,65.27
2023-03-16T22:32:07.273Z,64.66
2023-03-16T22:37:12.388Z,65.13
2023-03-16T22:42:37.104Z,65.29
2023-03-16T22:47:39.166Z,65.44
2023-03-16T22:52:41.045Z,65.54
2023-03-16T22:57:43.085Z,65.45
2023-03-16T23:02:44.872Z,66.06
2023-03-16T23:07:46.677Z,66.12
2023-03-16T23:12:50.014Z,66.67
2023-03-16T23:17:52.240Z,67.02
2023-03-16T23:22:55.140Z,67.70
2023-03-16T23:28:02.680Z,67.82
2023-03-16T23:33:04.729Z,68.30
2023-03-16T23:38:07.221Z,67.47
2023-03-16T23:43:09.146Z,68.33
2023-03-16T23:48:15.269Z,68.59
2023-03-16T23:53:18.947Z,68.19
2023-03-16T23:58:20.885Z,68.75
